Time;durP1;ratioP1;P1;durP2;ratioP2;P2;SDS_P1;SDS_P2;PMS_P1;PMS_P2;Temp;Humidity;BMP_temperature;BMP_pressure;BME280_temperature;BME280_humidity;BME280_pressure;Samples;Min_cycle;Max_cycle;Signal;HPM_P1;HPM_P2
2024/03/17 00:00:15;;;;;;;17.48;6.70;;;12.60;96.70;;;;;;4915955;29;20059;-70
2024/03/17 00:02:42;;;;;;;17.73;7.85;;;12.60;96.70;;;;;;4902164;29;20576;-70
2024/03/17 00:05:09;;;;;;;20.58;8.40;;;12.60;96.70;;;;;;4917245;29;20464;-70
2024/03/17 00:07:40;;;;;;;17.38;7.22;;;12.60;96.70;;;;;;4948205;29;20106;-70
2024/03/17 00:10:10;;;;;;;17.38;6.72;;;12.60;96.70;;;;;;4913988;29;20082;-70
2024/03/17 00:12:40;;;;;;;16.92;7.07;;;12.60;96.70;;;;;;4930633;29;20047;-70
2024/03/17 00:15:14;;;;;;;13.98;6.53;;;12.60;96.70;;;;;;4917337;29;20058;-70
2024/03/17 00:17:41;;;;;;;13.25;6.95;;;12.50;96.70;;;;;;4932805;29;20051;-70
2024/03/17 00:20:18;;;;;;;8.27;5.18;;;12.50;96.70;;;;;;4902228;29;20058;-70
2024/03/17 00:22:47;;;;;;;10.73;5.55;;;12.50;96.70;;;;;;4902408;29;20055;-70
2024/03/17 00:25:15;;;;;;;6.20;4.10;;;12.50;96.70;;;;;;4916667;29;20090;-70
2024/03/17 00:27:44;;;;;;;6.88;4.60;;;12.40;96.70;;;;;;4919188;29;21017;-70
2024/03/17 00:30:15;;;;;;;9.68;5.32;;;12.40;96.70;;;;;;4930014;29;20067;-70
2024/03/17 00:32:44;;;;;;;8.48;4.90;;;12.40;96.70;;;;;;4901366;29;20094;-70
2024/03/17 00:35:14;;;;;;;9.13;6.22;;;12.40;96.70;;;;;;4932810;29;20652;-70
2024/03/17 00:37:41;;;;;;;12.52;6.72;;;12.40;96.70;;;;;;4932654;29;20074;-70
2024/03/17 00:40:11;;;;;;;11.60;6.95;;;12.30;96.70;;;;;;4932863;29;20101;-70
2024/03/17 00:42:41;;;;;;;11.00;6.47;;;12.20;96.70;;;;;;4914223;29;20170;-70
2024/03/17 00:45:10;;;;;;;10.60;6.22;;;12.20;96.70;;;;;;4928809;29;20051;-70
2024/03/17 00:47:40;;;;;;;10.68;5.82;;;12.20;96.70;;;;;;4932421;29;20424;-70
2024/03/17 00:50:08;;;;;;;11.10;6.47;;;12.20;96.70;;;;;;4915994;29;20051;-70
2024/03/17 00:52:36;;;;;;;13.68;7.53;;;12.20;96.70;;;;;;4924916;29;20070;-69
2024/03/17 00:55:03;;;;;;;9.52;6.22;;;12.20;96.70;;;;;;4901972;29;20058;-70
2024/03/17 00:57:31;;;;;;;12.35;6.88;;;12.20;96.70;;;;;;4900225;29;20051;-70
2024/03/17 00:59:58;;;;;;;10.65;7.32;;;12.20;96.70;;;;;;4903639;29;20055;-70
2024/03/17 01:02:25;;;;;;;12.05;7.25;;;12.20;96.70;;;;;;4929899;29;20051;-70
2024/03/17 01:04:54;;;;;;;13.13;7.57;;;12.20;96.70;;;;;;4912925;29;20370;-70
2024/03/17 01:07:22;;;;;;;12.48;8.30;;;12.20;96.70;;;;;;4932180;29;20524;-70
2024/03/17 01:09:49;;;;;;;15.80;8.45;;;12.20;96.70;;;;;;4932625;29;20516;-70
2024/03/17 01:12:17;;;;;;;15.98;9.15;;;12.20;96.70;;;;;;4929275;29;20530;-70
2024/03/17 01:14:44;;;;;;;20.63;9.30;;;12.20;96.70;;;;;;4931166;29;20873;-70
2024/03/17 01:17:12;;;;;;;23.77;10.25;;;12.20;96.70;;;;;;4916281;29;20062;-70
2024/03/17 01:19:39;;;;;;;27.40;10.45;;;12.20;96.70;;;;;;4915003;29;20082;-70
2024/03/17 01:22:08;;;;;;;25.20;10.25;;;12.10;96.70;;;;;;4912978;29;20043;-70
2024/03/17 01:24:37;;;;;;;25.63;9.95;;;12.00;96.70;;;;;;4914282;29;20047;-70
2024/03/17 01:27:05;;;;;;;24.73;10.30;;;12.00;96.70;;;;;;4946687;29;20047;-70
2024/03/17 01:29:32;;;;;;;17.27;9.10;;;12.00;96.70;;;;;;4931398;29;20062;-70
2024/03/17 01:32:00;;;;;;;14.02;9.18;;;12.00;96.70;;;;;;4945171;29;20047;-70
2024/03/17 01:34:28;;;;;;;19.25;10.20;;;12.00;96.70;;;;;;4899251;29;20051;-70
2024/03/17 01:36:56;;;;;;;18.25;10.60;;;12.00;96.70;;;;;;4915796;29;20055;-70
2024/03/17 01:39:25;;;;;;;19.38;10.23;;;12.00;96.70;;;;;;4912752;29;20044;-70
2024/03/17 01:41:54;;;;;;;19.38;9.80;;;12.10;96.70;;;;;;4930929;29;20044;-70
2024/03/17 01:44:27;;;;;;;18.83;10.15;;;12.10;96.70;;;;;;4912993;29;20194;-70
2024/03/17 01:46:55;;;;;;;19.35;9.57;;;12.10;96.70;;;;;;4930812;29;20428;-70
2024/03/17 01:49:23;;;;;;;18.40;9.00;;;12.00;96.70;;;;;;4915440;29;20074;-70
2024/03/17 01:51:51;;;;;;;22.65;9.60;;;12.00;96.70;;;;;;4931189;29;20062;-70
2024/03/17 01:54:19;;;;;;;21.38;9.77;;;12.10;96.70;;;;;;4930753;29;20059;-70
2024/03/17 01:56:50;;;;;;;22.23;10.95;;;12.10;96.70;;;;;;4913983;29;20070;-70
2024/03/17 01:59:17;;;;;;;22.98;10.32;;;12.20;96.70;;;;;;4946398;29;20070;-70
2024/03/17 02:01:44;;;;;;;25.25;10.85;;;12.20;96.70;;;;;;4896146;29;20586;-71
2024/03/17 02:04:13;;;;;;;25.38;11.10;;;12.20;96.70;;;;;;4928054;29;20770;-69
2024/03/17 02:06:43;;;;;;;18.65;10.15;;;12.20;96.70;;;;;;4936275;29;20073;-70
2024/03/17 02:09:11;;;;;;;20.05;11.40;;;12.20;96.70;;;;;;4911237;29;20056;-70
2024/03/17 02:11:38;;;;;;;20.50;12.07;;;12.30;96.70;;;;;;4930011;29;20485;-70
2024/03/17 02:14:08;;;;;;;22.33;11.77;;;12.20;96.70;;;;;;4913946;29;20113;-70
2024/03/17 02:16:35;;;;;;;22.75;11.52;;;12.20;96.70;;;;;;4923692;29;20106;-70
2024/03/17 02:19:03;;;;;;;24.00;12.57;;;12.10;96.70;;;;;;4914398;29;20043;-70
2024/03/17 02:21:31;;;;;;;16.73;11.55;;;12.10;96.70;;;;;;4945779;28;20745;-69
2024/03/17 02:24:00;;;;;;;18.50;11.90;;;12.20;96.70;;;;;;4930138;29;20639;-70
2024/03/17 02:26:29;;;;;;;15.70;10.13;;;12.10;96.70;;;;;;4930148;29;20051;-70
2024/03/17 02:28:57;;;;;;;15.57;9.75;;;12.10;96.70;;;;;;4908469;29;20048;-70
2024/03/17 02:31:25;;;;;;;15.35;9.77;;;12.10;96.70;;;;;;4928815;29;20543;-69
2024/03/17 02:33:53;;;;;;;13.30;9.55;;;12.10;96.70;;;;;;4941717;29;20047;-70
2024/03/17 02:36:21;;;;;;;11.25;8.73;;;12.00;96.70;;;;;;4916007;29;20057;-70
2024/03/17 02:41:37;;;;;;;13.43;7.93;;;12.10;96.70;;;;;;4923082;29;20051;-70
2024/03/17 02:44:05;;;;;;;11.00;8.00;;;12.00;96.70;;;;;;4925241;29;20047;-70
2024/03/17 02:46:34;;;;;;;13.20;7.30;;;12.00;96.70;;;;;;4927605;29;20051;-70
2024/03/17 02:49:03;;;;;;;10.13;6.88;;;12.00;96.70;;;;;;4930496;29;20070;-70
2024/03/17 02:51:31;;;;;;;11.73;7.55;;;11.90;96.70;;;;;;4931226;29;20142;-70
2024/03/17 02:53:59;;;;;;;9.52;7.10;;;11.90;96.70;;;;;;4914683;29;20087;-70
2024/03/17 02:56:27;;;;;;;12.23;8.35;;;11.90;96.70;;;;;;4945662;29;20055;-70
2024/03/17 02:58:58;;;;;;;11.00;7.40;;;11.90;96.70;;;;;;4930121;29;20067;-71
2024/03/17 03:01:25;;;;;;;15.45;7.18;;;11.90;96.70;;;;;;4944964;29;20062;-70
2024/03/17 03:03:53;;;;;;;16.30;7.43;;;11.90;96.70;;;;;;4922282;29;21054;-70
2024/03/17 03:06:21;;;;;;;13.25;7.70;;;11.90;96.70;;;;;;4913292;29;20074;-70
2024/03/17 03:08:51;;;;;;;16.65;8.48;;;11.90;96.70;;;;;;4899191;29;20047;-70
2024/03/17 03:11:18;;;;;;;12.95;9.10;;;12.00;96.70;;;;;;4926178;29;20058;-70
2024/03/17 03:13:48;;;;;;;13.10;8.23;;;12.00;96.70;;;;;;4908729;29;20099;-70
2024/03/17 03:16:20;;;;;;;14.27;8.90;;;12.10;96.70;;;;;;4930200;29;20445;-70
2024/03/17 03:18:48;;;;;;;14.48;9.32;;;12.10;96.70;;;;;;4906102;29;20054;-70
2024/03/17 03:21:16;;;;;;;16.90;10.00;;;12.10;96.70;;;;;;4915462;29;20071;-70
2024/03/17 03:23:46;;;;;;;13.25;9.13;;;12.10;96.70;;;;;;4917949;29;20047;-71
2024/03/17 03:26:13;;;;;;;13.25;9.55;;;12.10;96.70;;;;;;4947345;29;20543;-71
2024/03/17 03:28:41;;;;;;;16.13;8.68;;;12.10;96.70;;;;;;4934330;29;20583;-70
2024/03/17 03:31:13;;;;;;;13.43;9.10;;;12.10;96.70;;;;;;4900283;29;20137;-70
2024/03/17 03:33:42;;;;;;;13.70;8.75;;;12.20;96.70;;;;;;4918013;29;20058;-70
2024/03/17 03:36:12;;;;;;;11.60;7.90;;;12.20;96.70;;;;;;4933111;29;20055;-70
2024/03/17 03:38:41;;;;;;;10.35;7.68;;;12.20;96.70;;;;;;4917267;29;20532;-71
2024/03/17 03:41:10;;;;;;;10.02;7.53;;;12.20;96.70;;;;;;4934183;29;20142;-70
2024/03/17 03:43:38;;;;;;;9.13;6.93;;;12.20;96.70;;;;;;4917405;29;20135;-70
2024/03/17 03:46:05;;;;;;;9.98;7.22;;;12.30;96.70;;;;;;4934166;29;20058;-70
2024/03/17 03:48:34;;;;;;;9.23;6.65;;;12.20;96.70;;;;;;4933462;29;20051;-70
2024/03/17 03:51:06;;;;;;;10.43;7.70;;;12.20;96.70;;;;;;4933685;29;20047;-70
2024/03/17 03:53:34;;;;;;;8.88;6.95;;;12.20;96.70;;;;;;4932919;29;20508;-70
2024/03/17 03:56:06;;;;;;;10.23;7.57;;;12.20;96.70;;;;;;4946977;29;20452;-70
2024/03/17 03:58:36;;;;;;;11.38;8.35;;;12.30;96.70;;;;;;4924908;29;20110;-70
2024/03/17 04:01:05;;;;;;;11.15;8.15;;;12.30;96.70;;;;;;4931744;29;20062;-71
2024/03/17 04:03:33;;;;;;;11.30;8.32;;;12.30;96.70;;;;;;4916688;29;20051;-70
2024/03/17 04:06:08;;;;;;;10.85;7.95;;;12.30;96.70;;;;;;4900182;29;20064;-70
2024/03/17 04:08:41;;;;;;;11.43;8.02;;;12.20;96.70;;;;;;4902118;29;20047;-70
2024/03/17 04:11:09;;;;;;;10.20;7.53;;;12.20;96.70;;;;;;4911192;29;20059;-70
2024/03/17 04:13:36;;;;;;;10.73;6.88;;;12.20;96.70;;;;;;4930063;29;20102;-70
2024/03/17 04:16:06;;;;;;;10.63;7.40;;;12.10;96.70;;;;;;4944482;29;20047;-70
2024/03/17 04:18:34;;;;;;;11.27;7.50;;;12.10;96.70;;;;;;4932503;29;20564;-70
2024/03/17 04:21:03;;;;;;;10.55;6.78;;;12.10;96.70;;;;;;4932827;29;20626;-70
2024/03/17 04:23:34;;;;;;;11.82;6.53;;;12.00;96.70;;;;;;4915725;29;20051;-70
2024/03/17 04:26:03;;;;;;;9.95;6.03;;;12.10;96.70;;;;;;4917889;29;20494;-71
2024/03/17 04:28:33;;;;;;;8.90;6.18;;;12.00;96.70;;;;;;4902496;29;20159;-70
2024/03/17 04:31:05;;;;;;;10.57;6.30;;;12.10;96.70;;;;;;4932805;29;20043;-70
2024/03/17 04:33:34;;;;;;;8.00;5.60;;;12.00;96.70;;;;;;4915083;29;20058;-70
2024/03/17 04:36:04;;;;;;;8.88;5.95;;;12.00;96.70;;;;;;4917295;29;20055;-70
2024/03/17 04:38:33;;;;;;;7.45;5.20;;;12.00;96.70;;;;;;4917348;29;20397;-70
2024/03/17 04:41:04;;;;;;;9.13;5.22;;;12.10;96.70;;;;;;4901417;29;20051;-70
2024/03/17 04:43:33;;;;;;;8.88;5.70;;;12.00;96.70;;;;;;4913529;29;20486;-70
2024/03/17 04:46:03;;;;;;;6.97;5.60;;;12.00;96.70;;;;;;4946052;29;20134;-70
2024/03/17 04:48:32;;;;;;;8.40;5.40;;;12.00;96.70;;;;;;4916039;29;20125;-70
2024/03/17 04:51:00;;;;;;;9.65;6.20;;;12.00;96.70;;;;;;4916234;29;20493;-70
2024/03/17 04:53:29;;;;;;;8.25;5.68;;;12.00;96.70;;;;;;4915121;29;22054;-69
2024/03/17 04:56:13;;;;;;;10.65;5.65;;;12.10;96.70;;;;;;4926694;29;20091;-70
2024/03/17 04:58:43;;;;;;;8.75;5.75;;;12.10;96.70;;;;;;4910908;29;20054;-70
2024/03/17 05:01:10;;;;;;;9.98;5.72;;;12.10;96.70;;;;;;4929332;29;20062;-69
2024/03/17 05:03:39;;;;;;;9.82;6.35;;;12.00;96.70;;;;;;4945836;28;20062;-70
2024/03/17 05:06:07;;;;;;;10.27;6.50;;;12.00;96.70;;;;;;4916737;29;20051;-70
2024/03/17 05:08:35;;;;;;;9.68;6.53;;;12.00;96.70;;;;;;4931708;29;20059;-70
2024/03/17 05:11:05;;;;;;;9.80;6.22;;;12.00;96.70;;;;;;4930817;29;20051;-70
2024/03/17 05:13:33;;;;;;;7.85;6.10;;;12.00;96.70;;;;;;4923831;29;20126;-70
2024/03/17 05:16:03;;;;;;;8.40;6.57;;;12.00;96.70;;;;;;4945866;29;20138;-70
2024/03/17 05:18:35;;;;;;;10.63;6.57;;;12.10;96.70;;;;;;4910108;29;20442;-71
2024/03/17 05:21:04;;;;;;;8.93;6.28;;;12.20;96.70;;;;;;4915206;29;20059;-70
2024/03/17 05:23:34;;;;;;;10.23;6.90;;;12.20;96.70;;;;;;4916748;29;20054;-72
2024/03/17 05:26:04;;;;;;;9.93;5.50;;;12.10;96.70;;;;;;4931736;29;20130;-70
2024/03/17 05:28:32;;;;;;;9.40;6.25;;;12.10;96.70;;;;;;4916288;29;20074;-71
2024/03/17 05:31:00;;;;;;;9.80;7.80;;;12.10;96.70;;;;;;4926644;29;20073;-70
2024/03/17 05:33:29;;;;;;;10.32;6.47;;;12.10;96.70;;;;;;4946229;29;20053;-70
2024/03/17 05:35:58;;;;;;;10.02;7.07;;;12.10;96.70;;;;;;4946867;28;20058;-70
2024/03/17 05:38:26;;;;;;;8.75;7.25;;;12.10;96.70;;;;;;4915591;29;20134;-70
2024/03/17 05:40:55;;;;;;;8.98;6.18;;;12.10;96.70;;;;;;4931338;29;20043;-70
2024/03/17 05:43:25;;;;;;;13.18;8.05;;;12.10;96.70;;;;;;4930670;28;20055;-70
2024/03/17 05:45:52;;;;;;;9.75;7.28;;;12.10;96.70;;;;;;4920704;29;20054;-70
2024/03/17 05:48:21;;;;;;;8.48;6.20;;;12.10;96.70;;;;;;4924694;29;20094;-70
2024/03/17 05:50:48;;;;;;;10.02;7.20;;;12.10;96.70;;;;;;4924139;29;20099;-70
2024/03/17 05:53:16;;;;;;;9.73;6.85;;;12.10;96.70;;;;;;4915714;29;20106;-70
2024/03/17 05:55:44;;;;;;;9.68;7.25;;;12.20;96.70;;;;;;4927816;29;20056;-70
2024/03/17 05:58:13;;;;;;;12.05;7.03;;;12.20;96.70;;;;;;4916214;29;20074;-70
2024/03/17 06:00:43;;;;;;;10.43;7.63;;;12.20;96.70;;;;;;4915177;29;20274;-70
2024/03/17 06:03:11;;;;;;;8.63;6.50;;;12.20;96.70;;;;;;4919956;29;20047;-71
2024/03/17 06:05:42;;;;;;;9.07;6.85;;;12.20;96.70;;;;;;4915291;29;20051;-70
2024/03/17 06:08:13;;;;;;;10.25;6.50;;;12.20;96.70;;;;;;4926129;29;20056;-70
2024/03/17 06:10:44;;;;;;;8.68;5.70;;;12.30;96.70;;;;;;4913019;29;20050;-70
2024/03/17 06:13:13;;;;;;;7.88;5.05;;;12.40;96.70;;;;;;4943887;29;20074;-71
2024/03/17 06:15:43;;;;;;;9.10;5.68;;;12.40;96.70;;;;;;4931240;29;20075;-70
2024/03/17 06:18:14;;;;;;;7.25;4.78;;;12.40;96.70;;;;;;4915210;29;20502;-70
2024/03/17 06:20:44;;;;;;;6.88;4.78;;;12.40;96.70;;;;;;4931546;29;20047;-70
2024/03/17 06:23:12;;;;;;;5.85;4.57;;;12.40;96.70;;;;;;4930955;29;20114;-70
2024/03/17 06:25:41;;;;;;;5.40;4.07;;;12.40;96.70;;;;;;4929655;29;20054;-70
2024/03/17 06:28:15;;;;;;;7.55;4.22;;;12.40;96.70;;;;;;4943384;29;20074;-70
2024/03/17 06:30:49;;;;;;;9.40;4.15;;;12.40;96.70;;;;;;4919610;29;20047;-70
2024/03/17 06:33:20;;;;;;;7.78;4.13;;;12.40;96.70;;;;;;4946406;29;20047;-70
2024/03/17 06:35:48;;;;;;;6.28;4.28;;;12.30;96.70;;;;;;4930923;29;20408;-71
2024/03/17 06:38:16;;;;;;;9.48;5.45;;;12.40;96.70;;;;;;4914519;29;20071;-70
2024/03/17 06:40:50;;;;;;;13.93;6.85;;;12.40;96.70;;;;;;4931193;29;20162;-70
2024/03/17 06:43:20;;;;;;;12.10;6.32;;;12.40;96.70;;;;;;4927115;29;20155;-70
2024/03/17 06:46:00;;;;;;;9.05;6.70;;;12.50;96.70;;;;;;4943115;28;20046;-71
2024/03/17 06:48:29;;;;;;;11.77;7.25;;;12.50;96.70;;;;;;4914382;29;20047;-70
2024/03/17 06:50:59;;;;;;;10.77;7.28;;;12.50;96.70;;;;;;4930736;29;20062;-70
2024/03/17 06:53:28;;;;;;;14.10;7.05;;;12.50;96.70;;;;;;4915569;29;20051;-70
2024/03/17 06:55:59;;;;;;;11.80;8.43;;;12.60;96.70;;;;;;4926447;29;20429;-70
2024/03/17 06:58:27;;;;;;;13.23;7.32;;;12.60;96.70;;;;;;4898532;29;20043;-70
2024/03/17 07:01:01;;;;;;;20.38;10.88;;;12.60;96.70;;;;;;4912692;29;20105;-70
2024/03/17 07:03:31;;;;;;;21.85;14.50;;;12.70;96.70;;;;;;4930020;29;20651;-70
2024/03/17 07:06:04;;;;;;;13.65;10.02;;;12.70;96.70;;;;;;4912381;29;20077;-71
2024/03/17 07:08:33;;;;;;;17.70;10.25;;;12.70;96.70;;;;;;4896236;29;20636;-71
2024/03/17 07:11:06;;;;;;;13.70;8.55;;;12.70;96.70;;;;;;4945735;29;20062;-70
2024/03/17 07:13:36;;;;;;;14.02;8.07;;;12.80;96.70;;;;;;4928168;29;20051;-70
2024/03/17 07:16:06;;;;;;;12.52;7.47;;;12.80;96.70;;;;;;4909615;29;20090;-70
2024/03/17 07:18:35;;;;;;;14.93;7.90;;;12.90;96.70;;;;;;4929441;29;20062;-70
2024/03/17 07:21:09;;;;;;;16.80;7.75;;;12.90;96.70;;;;;;4916555;29;20051;-71
2024/03/17 07:23:38;;;;;;;13.07;8.35;;;13.00;96.70;;;;;;4929406;29;20085;-70
2024/03/17 07:26:05;;;;;;;11.88;6.95;;;13.00;96.70;;;;;;4930195;29;20051;-70
2024/03/17 07:28:33;;;;;;;12.40;7.80;;;13.00;96.70;;;;;;4946141;29;20272;-70
2024/03/17 07:31:01;;;;;;;13.30;8.15;;;13.00;96.70;;;;;;4912018;29;20043;-70
2024/03/17 07:33:31;;;;;;;14.43;7.95;;;13.10;96.70;;;;;;4929794;29;20051;-70
2024/03/17 07:36:05;;;;;;;13.60;8.48;;;13.20;96.70;;;;;;4940919;29;20054;-70
2024/03/17 07:38:35;;;;;;;13.55;8.77;;;13.20;96.70;;;;;;4913565;29;20047;-69
2024/03/17 07:41:05;;;;;;;12.48;8.30;;;13.20;96.70;;;;;;4923793;29;20106;-70
2024/03/17 07:43:35;;;;;;;17.27;9.13;;;13.30;96.70;;;;;;4927651;29;20505;-70
2024/03/17 07:46:03;;;;;;;13.13;7.88;;;13.30;96.70;;;;;;4913940;29;20047;-70
2024/03/17 07:48:37;;;;;;;15.05;8.68;;;13.40;96.70;;;;;;4930049;29;20051;-70
2024/03/17 07:51:07;;;;;;;15.85;8.45;;;13.40;96.70;;;;;;4914542;29;20055;-71
2024/03/17 07:53:35;;;;;;;14.10;8.98;;;13.50;96.70;;;;;;4908895;29;20081;-70
2024/03/17 07:56:05;;;;;;;14.52;8.57;;;13.50;96.70;;;;;;4935749;29;20057;-70
2024/03/17 07:58:35;;;;;;;13.07;8.93;;;13.50;96.70;;;;;;4931832;29;20487;-70
2024/03/17 08:01:04;;;;;;;10.98;7.60;;;13.40;96.70;;;;;;4930378;29;20646;-70
2024/03/17 08:03:36;;;;;;;10.75;7.32;;;13.40;96.70;;;;;;4929595;29;20055;-70
2024/03/17 08:06:06;;;;;;;9.70;7.28;;;13.40;96.70;;;;;;4930055;29;20541;-70
2024/03/17 08:08:36;;;;;;;9.13;7.13;;;13.40;96.70;;;;;;4915978;29;20062;-70
2024/03/17 08:11:03;;;;;;;9.90;7.40;;;13.40;96.70;;;;;;4915207;29;20062;-70
2024/03/17 08:13:37;;;;;;;9.05;7.00;;;13.50;96.70;;;;;;4902272;29;20055;-70
2024/03/17 08:16:08;;;;;;;10.60;7.55;;;13.50;96.70;;;;;;4926321;29;20077;-70
2024/03/17 08:18:38;;;;;;;8.55;6.68;;;13.60;96.70;;;;;;4917158;29;20146;-71
2024/03/17 08:21:06;;;;;;;9.63;6.93;;;13.60;96.70;;;;;;4933528;29;20062;-70
2024/03/17 08:23:35;;;;;;;8.52;6.78;;;13.60;96.70;;;;;;4932478;29;20137;-70
2024/03/17 08:26:05;;;;;;;9.90;7.70;;;13.60;96.70;;;;;;4917606;29;20051;-70
2024/03/17 08:28:34;;;;;;;8.32;7.10;;;13.70;96.70;;;;;;4932427;29;20468;-70
2024/03/17 08:31:04;;;;;;;10.80;8.23;;;13.70;96.70;;;;;;4932038;29;20059;-71
2024/03/17 08:33:33;;;;;;;8.88;7.88;;;13.70;96.70;;;;;;4917521;29;20057;-70
2024/03/17 08:36:04;;;;;;;11.32;8.60;;;13.80;96.70;;;;;;4933101;29;20066;-70
2024/03/17 08:38:33;;;;;;;9.40;7.43;;;13.80;96.70;;;;;;4912104;29;20055;-70
2024/03/17 08:41:04;;;;;;;10.02;7.60;;;13.70;96.70;;;;;;4943238;29;20077;-70
2024/03/17 08:43:32;;;;;;;9.68;7.88;;;13.70;96.70;;;;;;4932733;29;20768;-71
2024/03/17 08:46:03;;;;;;;10.55;9.45;;;13.80;96.70;;;;;;4932454;29;20104;-70
2024/03/17 08:48:32;;;;;;;10.43;7.88;;;13.80;96.70;;;;;;4947748;29;20848;-70
2024/03/17 08:51:03;;;;;;;9.25;7.68;;;13.90;96.70;;;;;;4917227;29;20146;-69
2024/03/17 08:53:31;;;;;;;11.15;8.07;;;13.90;96.70;;;;;;4900490;29;20152;-70
2024/03/17 08:56:03;;;;;;;10.68;8.23;;;13.90;96.70;;;;;;4945799;29;20170;-71
2024/03/17 08:58:31;;;;;;;10.55;8.40;;;13.90;96.70;;;;;;4936322;29;20051;-70
2024/03/17 09:01:02;;;;;;;8.93;8.00;;;13.90;96.70;;;;;;4940992;29;20043;-70
2024/03/17 09:03:30;;;;;;;10.77;8.75;;;14.00;96.70;;;;;;4932325;29;20298;-71
2024/03/17 09:05:58;;;;;;;11.50;8.73;;;14.00;96.70;;;;;;4917114;29;20190;-70
2024/03/17 09:08:28;;;;;;;9.63;8.60;;;14.00;96.70;;;;;;4916354;29;20174;-71
2024/03/17 09:10:56;;;;;;;13.93;10.70;;;14.10;96.70;;;;;;4916023;29;20149;-71
2024/03/17 09:13:26;;;;;;;149.35;103.60;;;14.10;96.70;;;;;;4945976;29;20166;-69
2024/03/17 09:15:59;;;;;;;28.08;19.80;;;14.20;96.70;;;;;;4928352;29;20130;-70
2024/03/17 09:18:28;;;;;;;22.23;19.60;;;14.20;96.70;;;;;;4936483;28;20054;-71
2024/03/17 09:20:57;;;;;;;17.35;14.07;;;14.20;96.70;;;;;;4918492;29;20057;-69
2024/03/17 09:23:27;;;;;;;15.23;11.98;;;14.20;96.70;;;;;;4935797;28;20807;-71
2024/03/17 09:25:58;;;;;;;12.27;10.43;;;14.20;96.70;;;;;;4951106;28;20051;-70
2024/03/17 09:28:26;;;;;;;12.48;10.40;;;14.10;96.70;;;;;;4936375;29;20059;-70
2024/03/17 09:30:55;;;;;;;10.90;9.63;;;14.10;96.70;;;;;;4921322;28;20047;-71
2024/03/17 09:33:24;;;;;;;10.55;9.45;;;14.20;96.70;;;;;;4921457;28;20477;-70
2024/03/17 09:35:56;;;;;;;13.05;10.40;;;14.20;96.70;;;;;;4940483;28;20094;-71
2024/03/17 09:38:27;;;;;;;13.82;11.68;;;14.30;96.70;;;;;;4938329;28;20078;-71
2024/03/17 09:40:57;;;;;;;10.55;9.43;;;14.30;96.70;;;;;;4921213;29;20052;-70
2024/03/17 09:43:25;;;;;;;11.98;9.43;;;14.40;96.70;;;;;;4939097;28;20654;-71
2024/03/17 09:45:57;;;;;;;13.73;10.40;;;14.50;96.70;;;;;;4920850;28;20069;-70
2024/03/17 09:48:25;;;;;;;10.98;9.52;;;14.60;96.70;;;;;;4935400;28;20047;-70
2024/03/17 09:50:54;;;;;;;13.20;10.68;;;14.60;96.70;;;;;;4950327;28;20038;-70
2024/03/17 09:53:24;;;;;;;12.15;10.85;;;14.60;96.70;;;;;;4919961;29;20065;-70
2024/03/17 09:55:58;;;;;;;15.75;11.20;;;14.60;96.70;;;;;;4918317;29;20106;-71
2024/03/17 09:58:26;;;;;;;13.40;10.90;;;14.60;96.70;;;;;;4931780;29;20051;-71
2024/03/17 10:00:53;;;;;;;16.42;9.85;;;14.60;96.70;;;;;;4931900;29;20449;-70
2024/03/17 10:03:41;;;;;;;16.80;10.23;;;14.70;96.70;;;;;;4915383;29;20051;-71
2024/03/17 10:06:12;;;;;;;15.02;11.05;;;14.70;96.70;;;;;;4930918;29;20043;-72
2024/03/17 10:08:46;;;;;;;12.65;10.90;;;14.80;96.70;;;;;;4932748;29;20494;-72
2024/03/17 10:11:17;;;;;;;15.45;12.13;;;14.90;96.70;;;;;;4929555;29;20138;-72
2024/03/17 10:13:47;;;;;;;16.08;11.60;;;14.90;96.70;;;;;;4914652;29;20617;-73
2024/03/17 10:16:25;;;;;;;15.88;12.18;;;14.90;96.70;;;;;;4930331;29;20051;-71
2024/03/17 10:19:10;;;;;;;18.52;15.52;;;14.90;96.70;;;;;;4930921;29;20047;-71
2024/03/17 10:21:38;;;;;;;14.02;12.00;;;15.00;96.70;;;;;;4924868;29;20492;-71
2024/03/17 10:24:10;;;;;;;13.85;11.88;;;15.00;96.70;;;;;;4914800;29;20101;-70
2024/03/17 10:26:47;;;;;;;27.25;19.73;;;15.00;96.70;;;;;;4915427;29;20134;-71
2024/03/17 10:29:25;;;;;;;14.52;12.45;;;15.00;96.70;;;;;;4915255;29;20055;-71
2024/03/17 10:31:55;;;;;;;67.82;48.25;;;15.10;96.70;;;;;;4948102;29;20098;-71
2024/03/17 10:34:28;;;;;;;75.68;51.42;;;15.10;96.70;;;;;;4915564;29;20103;-71
2024/03/17 10:37:14;;;;;;;23.33;17.95;;;15.10;96.70;;;;;;4932625;29;20046;-71
2024/03/17 10:39:42;;;;;;;19.30;16.95;;;15.20;96.70;;;;;;4932596;29;20050;-71
2024/03/17 10:42:13;;;;;;;19.92;16.52;;;15.30;96.70;;;;;;4930718;29;20054;-71
2024/03/17 10:44:45;;;;;;;18.70;15.52;;;15.30;96.70;;;;;;4915260;29;20132;-70
2024/03/17 10:47:21;;;;;;;16.45;13.55;;;15.30;96.70;;;;;;4910094;29;20047;-70
2024/03/17 10:49:51;;;;;;;16.02;13.98;;;15.30;96.70;;;;;;4925443;29;20531;-70
2024/03/17 10:52:21;;;;;;;17.77;13.63;;;15.40;96.70;;;;;;4929532;29;20085;-70
2024/03/17 10:54:54;;;;;;;14.68;13.18;;;15.50;96.70;;;;;;4915245;29;20841;-70
2024/03/17 10:57:36;;;;;;;15.50;13.90;;;15.50;96.70;;;;;;4929963;29;20059;-70
2024/03/17 11:00:08;;;;;;;13.75;12.35;;;15.60;96.70;;;;;;4926280;29;20066;-70
2024/03/17 11:02:38;;;;;;;17.13;15.13;;;15.70;96.70;;;;;;4913283;29;20059;-71
2024/03/17 11:05:12;;;;;;;14.80;13.15;;;15.70;96.70;;;;;;4914779;29;20043;-70
2024/03/17 11:07:45;;;;;;;15.50;12.50;;;15.80;96.70;;;;;;4929647;29;20062;-70
2024/03/17 11:10:19;;;;;;;14.45;12.95;;;15.80;96.70;;;;;;4928596;29;20051;-71
2024/03/17 11:12:50;;;;;;;16.85;14.38;;;15.80;96.70;;;;;;4904509;29;20146;-71
2024/03/17 11:15:42;;;;;;;14.98;13.35;;;15.90;96.70;;;;;;4940862;29;20146;-70
2024/03/17 11:18:40;;;;;;;15.63;13.00;;;16.10;96.70;;;;;;4915843;29;20047;-70
2024/03/17 11:21:20;;;;;;;15.27;13.00;;;16.10;96.70;;;;;;4887463;29;20088;-71
2024/03/17 11:24:02;;;;;;;15.38;12.52;;;16.10;96.70;;;;;;4923784;29;20047;-71
2024/03/17 11:26:32;;;;;;;14.43;12.90;;;16.20;96.70;;;;;;4927404;29;20044;-71
2024/03/17 11:29:06;;;;;;;14.70;13.15;;;16.20;96.70;;;;;;4914203;29;20055;-70
2024/03/17 11:31:42;;;;;;;14.70;13.18;;;16.20;96.70;;;;;;4929769;29;20071;-70
2024/03/17 11:34:28;;;;;;;;;;;16.30;96.70;;;;;;4928727;29;20066;-70
2024/03/17 11:36:58;;;;;;;16.52;14.05;;;16.40;96.70;;;;;;4891982;29;19974;-70
2024/03/17 11:39:58;;;;;;;16.25;14.05;;;16.50;96.70;;;;;;4923250;29;20044;-70
2024/03/17 11:42:27;;;;;;;14.95;13.45;;;16.40;96.70;;;;;;4925985;29;20401;-70
2024/03/17 11:45:04;;;;;;;16.27;13.57;;;16.60;96.70;;;;;;4932848;29;20053;-70
2024/03/17 11:47:38;;;;;;;16.80;15.07;;;16.70;96.70;;;;;;4931970;29;20050;-70
2024/03/17 11:50:09;;;;;;;15.05;13.25;;;17.00;96.70;;;;;;4909686;29;20047;-70
2024/03/17 11:52:40;;;;;;;14.95;13.35;;;17.10;96.70;;;;;;4947781;29;20065;-70
2024/03/17 11:55:17;;;;;;;16.75;13.88;;;17.00;96.70;;;;;;4932942;29;20059;-70
2024/03/17 11:57:50;;;;;;;16.08;14.27;;;17.00;96.70;;;;;;4916622;29;20051;-70
2024/03/17 12:00:24;;;;;;;19.85;15.45;;;17.00;96.70;;;;;;4910620;29;20061;-70
2024/03/17 12:02:52;;;;;;;16.10;14.18;;;17.00;96.70;;;;;;4917590;29;20551;-70
2024/03/17 12:05:21;;;;;;;16.25;14.52;;;17.00;96.70;;;;;;4911469;29;20062;-70
2024/03/17 12:07:48;;;;;;;15.77;14.07;;;17.00;96.70;;;;;;4946826;29;20071;-70
2024/03/17 12:10:17;;;;;;;15.95;14.35;;;17.00;96.70;;;;;;4915595;29;20044;-71
2024/03/17 12:12:48;;;;;;;19.83;15.30;;;17.10;96.70;;;;;;4954052;28;20387;-70
2024/03/17 12:15:18;;;;;;;15.52;13.70;;;17.10;96.70;;;;;;4917437;29;20063;-71
2024/03/17 12:17:59;;;;;;;14.00;12.35;;;17.20;96.70;;;;;;4932507;29;20150;-71
2024/03/17 12:20:27;;;;;;;15.30;13.15;;;17.20;96.70;;;;;;4932377;29;20042;-70
2024/03/17 12:22:57;;;;;;;13.68;11.77;;;17.30;96.70;;;;;;4925231;29;20047;-71
2024/03/17 12:25:26;;;;;;;14.48;12.93;;;17.30;96.70;;;;;;4916405;29;20114;-71
2024/03/17 12:27:55;;;;;;;14.60;12.57;;;17.40;96.70;;;;;;4915336;29;20082;-71
2024/03/17 12:30:23;;;;;;;15.88;13.25;;;17.50;96.70;;;;;;4916452;29;20057;-71
2024/03/17 12:32:51;;;;;;;14.23;12.63;;;17.40;96.70;;;;;;4932440;29;20146;-70
2024/03/17 12:35:21;;;;;;;14.02;12.55;;;17.60;96.70;;;;;;4925212;29;20151;-71
2024/03/17 12:37:49;;;;;;;13.82;11.88;;;17.70;96.70;;;;;;4917228;29;20047;-71
2024/03/17 12:40:23;;;;;;;16.42;12.82;;;17.80;96.70;;;;;;4917233;29;20134;-71
2024/03/17 12:42:52;;;;;;;16.90;13.75;;;17.80;96.70;;;;;;4936590;29;20051;-71
2024/03/17 12:45:21;;;;;;;13.98;12.43;;;17.80;96.70;;;;;;4922536;29;20054;-71
2024/03/17 12:47:50;;;;;;;16.25;13.68;;;17.90;96.70;;;;;;4916621;29;20631;-71
2024/03/17 12:50:19;;;;;;;14.00;12.50;;;18.00;96.70;;;;;;4932469;29;20040;-71
2024/03/17 12:52:57;;;;;;;15.02;13.38;;;18.10;96.70;;;;;;4922235;28;20587;-71